createdAt,value
2022-08-11T00:00:20.274Z,102049.38
2022-08-11T00:02:48.752Z,102045.94
2022-08-11T00:05:15.439Z,102045.66
2022-08-11T00:07:46.811Z,102038.50
2022-08-11T00:10:14.372Z,102046.09
2022-08-11T00:12:39.861Z,102046.88
2022-08-11T00:15:04.308Z,102043.56
2022-08-11T00:17:33.344Z,102053.00
2022-08-11T00:20:11.940Z,102045.16
2022-08-11T00:22:44.670Z,102050.47
2022-08-11T00:25:14.253Z,102055.38
2022-08-11T00:27:42.243Z,102052.81
2022-08-11T00:30:08.951Z,102039.06
2022-08-11T00:32:33.706Z,102049.22
2022-08-11T00:35:50.908Z,102044.38
2022-08-11T00:37:50.779Z,102038.50
2022-08-11T00:40:24.840Z,102042.94
2022-08-11T00:43:03.284Z,102037.09
2022-08-11T00:45:33.995Z,102042.25
2022-08-11T00:48:08.852Z,102044.53
2022-08-11T00:50:48.574Z,102048.25
2022-08-11T00:53:40.605Z,102045.97
2022-08-11T00:56:44.565Z,102048.28
2022-08-11T00:59:56.564Z,102044.84
2022-08-11T01:02:30.787Z,102052.56
2022-08-11T01:05:38.705Z,102049.72
2022-08-11T01:09:17.899Z,102054.84
2022-08-11T01:12:23.124Z,102049.16
2022-08-11T01:15:31.157Z,102050.53
2022-08-11T01:19:03.053Z,102048.22
2022-08-11T01:22:20.360Z,102047.66
2022-08-11T01:25:30.982Z,102050.53
2022-08-11T01:28:59.177Z,102054.41
2022-08-11T01:32:17.096Z,102050.53
2022-08-11T01:35:43.549Z,102056.34
2022-08-11T01:39:18.367Z,102054.50
2022-08-11T01:42:32.022Z,102050.59
2022-08-11T01:45:17.156Z,102054.72
2022-08-11T01:47:54.527Z,102051.91
2022-08-11T01:50:38.540Z,102055.72
2022-08-11T01:53:17.620Z,102045.00
2022-08-11T01:56:03.623Z,102044.56
2022-08-11T01:58:43.697Z,102040.97
2022-08-11T02:01:27.458Z,102031.97
2022-08-11T02:04:00.244Z,102037.50
2022-08-11T02:06:57.484Z,102043.22
2022-08-11T02:09:49.565Z,102045.75
2022-08-11T02:12:37.816Z,102043.78
2022-08-11T02:15:15.788Z,102039.06
2022-08-11T02:17:53.773Z,102040.34
2022-08-11T02:20:49.511Z,102038.47
2022-08-11T02:24:06.852Z,102033.75
2022-08-11T02:26:37.843Z,102037.00
2022-08-11T02:29:14.121Z,102030.00
2022-08-11T02:32:24.200Z,102024.69
2022-08-11T02:35:03.189Z,102024.81
2022-08-11T02:37:38.828Z,102031.66
2022-08-11T02:40:21.080Z,102031.06
2022-08-11T02:43:07.196Z,102033.28
2022-08-11T02:45:46.304Z,102026.69
2022-08-11T02:48:46.608Z,102031.13
2022-08-11T02:51:22.096Z,102029.41
2022-08-11T02:53:58.970Z,102018.94
2022-08-11T02:56:44.609Z,102023.63
2022-08-11T02:59:38.274Z,102023.94
2022-08-11T03:02:14.280Z,102029.59
2022-08-11T03:04:49.971Z,102029.88
2022-08-11T03:07:29.058Z,102028.56
2022-08-11T03:10:05.323Z,102031.53
2022-08-11T03:12:59.383Z,102032.53
2022-08-11T03:15:48.580Z,102031.94
2022-08-11T03:18:26.882Z,102035.91
2022-08-11T03:21:00.499Z,102029.00
2022-08-11T03:23:35.497Z,102030.75
2022-08-11T03:26:07.724Z,102031.28
2022-08-11T03:28:37.644Z,102032.41
2022-08-11T03:31:16.861Z,102027.81
2022-08-11T03:34:07.247Z,102033.25
2022-08-11T03:37:16.130Z,102027.81
2022-08-11T03:39:57.305Z,102027.81
2022-08-11T03:42:34.223Z,102032.78
2022-08-11T03:45:09.003Z,102025.91
2022-08-11T03:48:07.111Z,102030.31
2022-08-11T03:51:09.404Z,102028.03
2022-08-11T03:54:10.525Z,102028.28
2022-08-11T03:57:36.670Z,102030.13
2022-08-11T04:00:22.135Z,102025.09
2022-08-11T04:03:39.095Z,102033.44
2022-08-11T04:07:05.623Z,102029.06
2022-08-11T04:10:40.574Z,102035.31
2022-08-11T04:14:18.176Z,102028.41
2022-08-11T04:16:47.491Z,102023.09
2022-08-11T04:20:16.204Z,102030.25
2022-08-11T04:23:09.068Z,102025.53
2022-08-11T04:26:19.042Z,102031.31
2022-08-11T04:28:57.577Z,102031.63
2022-08-11T04:31:51.931Z,102039.25
2022-08-11T04:34:57.140Z,102047.25
2022-08-11T04:38:12.257Z,102032.81
2022-08-11T04:41:26.879Z,102032.31
2022-08-11T04:44:35.655Z,102034.22
2022-08-11T04:48:04.317Z,102024.72
2022-08-11T04:51:16.971Z,102028.31
2022-08-11T04:54:14.932Z,102034.91
2022-08-11T04:56:59.282Z,102037.34
2022-08-11T05:00:02.001Z,102039.13
2022-08-11T05:03:19.403Z,102034.19
2022-08-11T05:06:30.027Z,102034.25
2022-08-11T05:09:35.268Z,102041.59
2022-08-11T05:12:30.005Z,102049.44
2022-08-11T05:15:12.478Z,102049.28
2022-08-11T05:17:59.385Z,102046.69
2022-08-11T05:20:44.389Z,102048.31
2022-08-11T05:23:29.920Z,102051.06
2022-08-11T05:26:47.640Z,102045.25
2022-08-11T05:29:21.446Z,102047.25
2022-08-11T05:32:09.171Z,102063.03
2022-08-11T05:34:54.564Z,102063.78
2022-08-11T05:37:27.101Z,102064.94
2022-08-11T05:40:16.851Z,102059.94
2022-08-11T05:43:07.848Z,102063.97
2022-08-11T05:45:58.284Z,102066.00
2022-08-11T05:48:53.015Z,102058.44
2022-08-11T05:51:35.800Z,102061.03
2022-08-11T05:54:28.606Z,102060.88
2022-08-11T05:56:57.917Z,102062.78
2022-08-11T05:59:25.133Z,102058.91
2022-08-11T06:01:51.077Z,102053.84
2022-08-11T06:04:20.695Z,102058.97
2022-08-11T06:06:56.260Z,102055.34
2022-08-11T06:09:26.865Z,102058.41
2022-08-11T06:11:51.363Z,102055.88
2022-08-11T06:14:17.080Z,102055.69
2022-08-11T06:16:43.662Z,102056.91
2022-08-11T06:19:08.248Z,102054.91
2022-08-11T06:21:36.271Z,102056.50
2022-08-11T06:24:01.284Z,102064.59
2022-08-11T06:26:25.603Z,102059.44
2022-08-11T06:28:50.531Z,102061.19
2022-08-11T06:31:20.728Z,102060.28
2022-08-11T06:34:01.256Z,102065.50
2022-08-11T06:36:36.024Z,102064.69
2022-08-11T06:39:13.710Z,102063.69
2022-08-11T06:41:46.008Z,102072.81
2022-08-11T06:44:25.596Z,102066.97
2022-08-11T06:46:56.083Z,102064.41
2022-08-11T06:49:40.288Z,102062.47
2022-08-11T06:52:07.772Z,102061.97
2022-08-11T06:55:04.346Z,102061.34
2022-08-11T06:57:45.796Z,102050.38
2022-08-11T07:00:33.155Z,102055.22
2022-08-11T07:03:03.508Z,102051.16
2022-08-11T07:05:43.960Z,102053.03
2022-08-11T07:09:20.642Z,102049.63
2022-08-11T07:12:43.494Z,102047.81
2022-08-11T07:16:13.256Z,102051.50
2022-08-11T07:18:40.733Z,102043.16
2022-08-11T07:22:01.445Z,102051.94
2022-08-11T07:24:59.836Z,102050.47
2022-08-11T07:27:49.049Z,102049.91
2022-08-11T07:30:14.101Z,102050.88
2022-08-11T07:32:47.897Z,102043.75
2022-08-11T07:35:20.096Z,102036.34
2022-08-11T07:37:50.999Z,102031.66
2022-08-11T07:40:26.969Z,102037.09
2022-08-11T07:42:51.836Z,102038.69
2022-08-11T07:45:33.108Z,102033.28
2022-08-11T07:48:14.995Z,102040.13
2022-08-11T07:51:02.764Z,102041.56
2022-08-11T07:53:28.031Z,102048.63
2022-08-11T07:55:53.509Z,102042.44
2022-08-11T07:58:44.064Z,102039.78
2022-08-11T08:01:28.032Z,102033.13
2022-08-11T08:04:10.523Z,102037.78
2022-08-11T08:06:55.052Z,102048.91
2022-08-11T08:09:39.218Z,102042.00
2022-08-11T08:12:23.471Z,102039.63
2022-08-11T08:15:04.593Z,102038.84
2022-08-11T08:17:46.644Z,102037.00
2022-08-11T08:20:34.609Z,102038.34
2022-08-11T08:23:02.809Z,102033.03
2022-08-11T08:25:28.935Z,102036.03
2022-08-11T08:27:54.004Z,102032.28
2022-08-11T08:30:35.675Z,102027.78
2022-08-11T08:33:01.180Z,102027.97
2022-08-11T08:35:29.354Z,102019.88
2022-08-11T08:37:56.315Z,102018.69
2022-08-11T08:40:21.777Z,102022.97
2022-08-11T08:42:53.721Z,102024.19
2022-08-11T08:45:18.637Z,102023.56
2022-08-11T08:47:52.577Z,102026.06
2022-08-11T08:50:27.498Z,102027.94
2022-08-11T08:52:57.683Z,102021.38
2022-08-11T08:55:23.644Z,102027.16
2022-08-11T08:57:50.736Z,102017.69
2022-08-11T09:00:22.831Z,102017.34
2022-08-11T09:02:47.841Z,102015.25
2022-08-11T09:05:13.020Z,102017.44
2022-08-11T09:07:37.964Z,102014.66
2022-08-11T09:10:04.487Z,102016.75
2022-08-11T09:12:36.405Z,102010.56
2022-08-11T09:15:06.000Z,102009.63
2022-08-11T09:17:32.752Z,102011.22
2022-08-11T09:20:01.572Z,102007.41
2022-08-11T09:22:43.540Z,102006.41
2022-08-11T09:25:26.613Z,102000.53
2022-08-11T09:27:52.597Z,102009.53
2022-08-11T09:30:16.319Z,102002.38
2022-08-11T09:32:42.139Z,102012.22
2022-08-11T09:35:07.454Z,102007.75
2022-08-11T09:37:54.161Z,102001.75
2022-08-11T09:40:31.271Z,102004.38
2022-08-11T09:43:14.724Z,102003.56
2022-08-11T09:45:40.684Z,101990.22
2022-08-11T09:48:07.235Z,101995.34
2022-08-11T09:50:32.135Z,101984.50
2022-08-11T09:53:36.217Z,101974.97
2022-08-11T09:55:41.916Z,101986.63
2022-08-11T09:58:41.829Z,101977.44
2022-08-11T10:01:03.187Z,101972.66
2022-08-11T10:03:28.579Z,101971.72
2022-08-11T10:06:15.327Z,101970.03
2022-08-11T10:08:43.368Z,101979.09
2022-08-11T10:11:11.224Z,101971.19
2022-08-11T10:14:31.871Z,101975.72
2022-08-11T10:16:43.467Z,101967.03
2022-08-11T10:19:08.493Z,101966.63
2022-08-11T10:21:39.488Z,101956.63
2022-08-11T10:24:22.282Z,101961.47
2022-08-11T10:27:00.333Z,101951.91
2022-08-11T10:29:49.583Z,101959.00
2022-08-11T10:32:33.207Z,101956.75
2022-08-11T10:35:09.231Z,101954.56
2022-08-11T10:38:08.848Z,101956.38
2022-08-11T10:40:23.721Z,101951.38
2022-08-11T10:43:07.171Z,101947.16
2022-08-11T10:45:52.756Z,101936.72
2022-08-11T10:48:18.351Z,101939.50
2022-08-11T10:51:04.349Z,101929.94
2022-08-11T10:53:45.839Z,101930.28
2022-08-11T10:56:27.902Z,101926.78
2022-08-11T10:58:53.669Z,101922.63
2022-08-11T11:01:26.283Z,101924.50
2022-08-11T11:03:53.855Z,101911.88
2022-08-11T11:06:28.326Z,101914.94
2022-08-11T11:09:04.786Z,101921.22
2022-08-11T11:11:46.502Z,101918.41
2022-08-11T11:14:28.410Z,101917.00
2022-08-11T11:17:11.408Z,101911.94
2022-08-11T11:19:40.360Z,101915.16
2022-08-11T11:22:24.285Z,101902.97
2022-08-11T11:25:04.796Z,101905.34
2022-08-11T11:27:36.967Z,101897.28
2022-08-11T11:30:12.296Z,101894.47
2022-08-11T11:32:54.753Z,101890.47
2022-08-11T11:35:36.673Z,101891.59
2022-08-11T11:38:04.855Z,101892.56
2022-08-11T11:40:31.898Z,101897.28
2022-08-11T11:42:59.164Z,101904.56
2022-08-11T11:45:26.337Z,101903.47
2022-08-11T11:47:54.352Z,101896.31
2022-08-11T11:50:19.411Z,101896.25
2022-08-11T11:52:44.896Z,101892.19
2022-08-11T11:55:10.225Z,101888.88
2022-08-11T11:57:58.588Z,101875.22
2022-08-11T12:00:43.453Z,101870.06
2022-08-11T12:03:12.167Z,101868.53
2022-08-11T12:05:37.903Z,101867.44
2022-08-11T12:08:15.404Z,101871.75
2022-08-11T12:10:40.110Z,101871.47
2022-08-11T12:13:36.320Z,101869.19
2022-08-11T12:16:33.573Z,101861.09
2022-08-11T12:18:53.501Z,101853.78
2022-08-11T12:21:18.374Z,101846.22
2022-08-11T12:24:14.856Z,101841.16
2022-08-11T12:26:54.422Z,101844.22
2022-08-11T12:29:41.202Z,101849.38
2022-08-11T12:32:09.951Z,101836.97
2022-08-11T12:34:35.650Z,101842.41
2022-08-11T12:37:05.617Z,101844.88
2022-08-11T12:40:16.374Z,101849.22
2022-08-11T12:42:56.409Z,101843.59
2022-08-11T12:45:31.689Z,101839.13
2022-08-11T12:48:59.472Z,101828.69
2022-08-11T12:51:27.437Z,101830.16
2022-08-11T12:53:58.797Z,101835.50
2022-08-11T12:56:40.496Z,101833.72
2022-08-11T12:59:24.193Z,101825.09
2022-08-11T13:02:05.575Z,101812.47
2022-08-11T13:04:47.905Z,101808.88
2022-08-11T13:07:18.380Z,101807.31
2022-08-11T13:09:42.915Z,101799.38
2022-08-11T13:12:25.575Z,101797.91
2022-08-11T13:14:49.567Z,101797.41
2022-08-11T13:17:43.524Z,101794.38
2022-08-11T13:20:10.780Z,101801.41
2022-08-11T13:22:38.490Z,101801.50
2022-08-11T13:25:02.452Z,101795.31
2022-08-11T13:27:26.731Z,101793.75
2022-08-11T13:29:54.107Z,101792.06
2022-08-11T13:32:19.288Z,101788.47
2022-08-11T13:34:43.876Z,101783.50
2022-08-11T13:37:07.775Z,101787.84
2022-08-11T13:39:35.346Z,101783.31
2022-08-11T13:42:02.964Z,101776.75
2022-08-11T13:44:30.123Z,101776.81
2022-08-11T13:46:56.468Z,101772.28
2022-08-11T13:49:21.405Z,101769.97
2022-08-11T13:51:45.705Z,101767.97
2022-08-11T13:54:12.509Z,101763.34
2022-08-11T13:56:40.719Z,101768.63
2022-08-11T13:59:05.700Z,101765.25
2022-08-11T14:02:22.365Z,101769.66
2022-08-11T14:04:29.681Z,101762.66
2022-08-11T14:07:00.897Z,101772.78
2022-08-11T14:09:28.671Z,101767.56
2022-08-11T14:12:22.332Z,101758.91
2022-08-11T14:14:56.749Z,101754.97
2022-08-11T14:17:47.038Z,101756.75
2022-08-11T14:20:35.488Z,101753.41
2022-08-11T14:22:53.325Z,101748.97
2022-08-11T14:25:17.865Z,101758.69
2022-08-11T14:28:30.679Z,101752.94
2022-08-11T14:30:46.871Z,101736.69
2022-08-11T14:33:17.117Z,101740.41
2022-08-11T14:35:44.530Z,101737.56
2022-08-11T14:38:13.868Z,101736.16
2022-08-11T14:40:54.923Z,101741.13
2022-08-11T14:44:10.440Z,101733.38
2022-08-11T14:46:38.207Z,101737.41
2022-08-11T14:49:02.570Z,101734.63
2022-08-11T14:51:27.908Z,101741.47
2022-08-11T14:54:12.064Z,101732.44
2022-08-11T14:56:38.040Z,101733.91
2022-08-11T14:59:03.255Z,101733.81
2022-08-11T15:01:45.549Z,101726.53
2022-08-11T15:04:35.326Z,101731.81
2022-08-11T15:06:54.260Z,101729.53
2022-08-11T15:09:18.274Z,101720.41
2022-08-11T15:12:00.922Z,101719.88
2022-08-11T15:14:41.433Z,101716.66
2022-08-11T15:17:09.634Z,101710.56
2022-08-11T15:19:36.753Z,101713.72
2022-08-11T15:22:27.425Z,101709.81
2022-08-11T15:24:51.800Z,101711.94
2022-08-11T15:27:40.616Z,101698.78
2022-08-11T15:30:41.029Z,101712.34
2022-08-11T15:33:28.145Z,101702.00
2022-08-11T15:36:11.832Z,101701.31
2022-08-11T15:38:41.592Z,101705.66
2022-08-11T15:41:25.335Z,101699.63
2022-08-11T15:44:12.987Z,101694.31
2022-08-11T15:46:52.512Z,101693.22
2022-08-11T15:49:24.616Z,101703.59
2022-08-11T15:52:12.344Z,101701.19
2022-08-11T15:54:42.609Z,101707.41
2022-08-11T15:57:07.427Z,101697.69
2022-08-11T15:59:51.148Z,101702.25
2022-08-11T16:02:39.532Z,101693.72
2022-08-11T16:05:08.508Z,101692.66
2022-08-11T16:07:39.791Z,101690.00
2022-08-11T16:10:09.733Z,101689.19
2022-08-11T16:12:41.023Z,101685.22
2022-08-11T16:15:25.867Z,101681.75
2022-08-11T16:17:59.504Z,101684.97
2022-08-11T16:20:26.317Z,101678.03
2022-08-11T16:23:00.314Z,101678.72
2022-08-11T16:27:04.431Z,101679.81
2022-08-11T16:28:14.583Z,101687.06
2022-08-11T16:30:43.204Z,101680.44
2022-08-11T16:33:49.031Z,101674.91
2022-08-11T16:36:11.912Z,101687.31
2022-08-11T16:38:36.902Z,101674.88
2022-08-11T16:41:07.222Z,101687.72
2022-08-11T16:43:54.212Z,101683.31
2022-08-11T16:46:36.866Z,101677.00
2022-08-11T16:49:03.988Z,101683.25
2022-08-11T16:51:27.847Z,101677.41
2022-08-11T16:54:04.815Z,101685.22
2022-08-11T16:56:35.667Z,101678.16
2022-08-11T16:59:16.908Z,101684.84
2022-08-11T17:01:44.860Z,101676.31
2022-08-11T17:04:36.521Z,101679.41
2022-08-11T17:07:41.673Z,101677.78
2022-08-11T17:10:50.970Z,101669.59
2022-08-11T17:13:20.502Z,101674.28
2022-08-11T17:16:06.823Z,101673.81
2022-08-11T17:18:43.173Z,101672.28
2022-08-11T17:21:09.568Z,101672.44
2022-08-11T17:23:52.666Z,101673.66
2022-08-11T17:26:21.652Z,101680.69
2022-08-11T17:28:51.417Z,101675.31
2022-08-11T17:31:33.424Z,101679.81
2022-08-11T17:34:16.986Z,101684.59
2022-08-11T17:36:45.776Z,101676.44
2022-08-11T17:39:10.504Z,101675.59
2022-08-11T17:41:51.703Z,101681.53
2022-08-11T17:44:33.455Z,101682.09
2022-08-11T17:47:14.844Z,101678.31
2022-08-11T17:49:41.081Z,101677.16
2022-08-11T17:52:24.636Z,101679.47
2022-08-11T17:55:02.460Z,101687.97
2022-08-11T17:57:49.130Z,101675.19
2022-08-11T18:00:15.088Z,101683.78
2022-08-11T18:02:59.726Z,101676.25
2022-08-11T18:05:26.813Z,101690.06
2022-08-11T18:08:12.514Z,101684.16
2022-08-11T18:10:55.035Z,101682.53
2022-08-11T18:13:41.520Z,101686.19
2022-08-11T18:16:23.115Z,101694.53
2022-08-11T18:19:04.800Z,101697.81
2022-08-11T18:22:01.840Z,101698.09
2022-08-11T18:24:59.129Z,101694.53
2022-08-11T18:27:41.944Z,101694.53
2022-08-11T18:30:25.987Z,101706.03
2022-08-11T18:33:39.746Z,101707.31
2022-08-11T18:36:18.303Z,101706.28
2022-08-11T18:39:01.620Z,101707.94
2022-08-11T18:41:46.218Z,101708.16
2022-08-11T18:44:28.927Z,101715.56
2022-08-11T18:47:12.542Z,101716.38
2022-08-11T18:50:03.522Z,101723.56
2022-08-11T18:52:49.645Z,101718.19
2022-08-11T18:55:35.927Z,101723.88
2022-08-11T18:58:24.245Z,101727.41
2022-08-11T19:01:06.606Z,101730.53
2022-08-11T19:03:49.573Z,101723.44
2022-08-11T19:06:39.743Z,101721.63
2022-08-11T19:09:25.557Z,101724.69
2022-08-11T19:12:08.274Z,101733.91
2022-08-11T19:14:54.252Z,101738.06
2022-08-11T19:17:44.397Z,101743.25
2022-08-11T19:20:32.446Z,101742.09
2022-08-11T19:23:15.721Z,101746.38
2022-08-11T19:25:58.621Z,101743.31
2022-08-11T19:28:42.300Z,101744.66
2022-08-11T19:31:27.737Z,101741.28
2022-08-11T19:34:10.958Z,101742.47
2022-08-11T19:36:54.224Z,101752.91
2022-08-11T19:39:37.314Z,101751.13
2022-08-11T19:42:19.575Z,101745.03
2022-08-11T19:45:02.059Z,101744.47
2022-08-11T19:47:45.605Z,101738.22
2022-08-11T19:50:27.709Z,101736.41
2022-08-11T19:53:16.908Z,101741.16
2022-08-11T19:55:59.710Z,101737.66
2022-08-11T19:58:40.915Z,101736.03
2022-08-11T20:01:23.645Z,101735.53
2022-08-11T20:04:06.536Z,101740.88
2022-08-11T20:06:48.776Z,101736.63
2022-08-11T20:10:04.770Z,101737.72
2022-08-11T20:12:34.382Z,101737.13
2022-08-11T20:15:17.264Z,101746.00
2022-08-11T20:18:00.383Z,101742.44
2022-08-11T20:20:46.249Z,101743.53
2022-08-11T20:23:32.125Z,101743.75
2022-08-11T20:26:32.787Z,101747.56
2022-08-11T20:29:14.648Z,101747.78
2022-08-11T20:31:56.800Z,101752.28
2022-08-11T20:34:38.362Z,101754.56
2022-08-11T20:37:23.396Z,101757.81
2022-08-11T20:40:05.768Z,101758.91
2022-08-11T20:42:48.514Z,101772.97
2022-08-11T20:45:33.483Z,101770.25
2022-08-11T20:48:16.372Z,101775.22
2022-08-11T20:50:59.154Z,101776.63
2022-08-11T20:53:44.515Z,101777.66
2022-08-11T20:56:28.934Z,101778.50
2022-08-11T20:59:18.213Z,101784.16
2022-08-11T21:02:03.499Z,101786.56
2022-08-11T21:04:54.813Z,101791.84
2022-08-11T21:07:41.191Z,101780.72
2022-08-11T21:10:26.526Z,101786.72
2022-08-11T21:13:27.061Z,101791.16
2022-08-11T21:16:16.484Z,101788.78
2022-08-11T21:19:09.907Z,101792.03
2022-08-11T21:21:53.878Z,101791.00
2022-08-11T21:24:39.439Z,101800.22
2022-08-11T21:27:34.316Z,101792.22
2022-08-11T21:30:16.352Z,101797.69
2022-08-11T21:33:00.491Z,101797.69
2022-08-11T21:35:45.024Z,101802.63
2022-08-11T21:38:26.999Z,101803.66
2022-08-11T21:41:10.620Z,101801.78
2022-08-11T21:43:54.513Z,101802.09
2022-08-11T21:46:39.993Z,101797.66
2022-08-11T21:49:22.711Z,101798.53
2022-08-11T21:52:04.236Z,101806.22
2022-08-11T21:54:46.476Z,101803.97
2022-08-11T21:57:28.445Z,101800.88
2022-08-11T22:00:14.594Z,101801.41
2022-08-11T22:02:58.345Z,101798.97
2022-08-11T22:05:40.175Z,101808.31
2022-08-11T22:08:21.927Z,101802.03
2022-08-11T22:11:03.407Z,101804.06
2022-08-11T22:14:06.025Z,101797.56
2022-08-11T22:16:47.301Z,101807.94
2022-08-11T22:19:28.739Z,101802.63
2022-08-11T22:22:10.380Z,101794.59
2022-08-11T22:24:53.776Z,101794.94
2022-08-11T22:27:35.011Z,101799.34
2022-08-11T22:30:16.132Z,101802.72
2022-08-11T22:33:00.572Z,101797.44
2022-08-11T22:35:42.435Z,101796.91
2022-08-11T22:38:24.281Z,101792.28
2022-08-11T22:41:05.369Z,101794.63
2022-08-11T22:43:47.297Z,101795.63
2022-08-11T22:46:28.524Z,101788.75
2022-08-11T22:49:12.731Z,101797.72
2022-08-11T22:51:54.671Z,101797.59
2022-08-11T22:54:37.887Z,101797.50
2022-08-11T22:57:19.323Z,101796.81
2022-08-11T23:00:00.959Z,101803.44
2022-08-11T23:02:43.659Z,101798.09
2022-08-11T23:05:28.076Z,101804.88
2022-08-11T23:08:09.244Z,101799.38
2022-08-11T23:10:51.395Z,101803.44
2022-08-11T23:13:33.359Z,101806.31
2022-08-11T23:16:15.727Z,101809.53
2022-08-11T23:18:57.749Z,101802.81
2022-08-11T23:21:40.813Z,101802.63
2022-08-11T23:24:22.359Z,101801.38
2022-08-11T23:27:04.440Z,101800.84
2022-08-11T23:29:47.240Z,101801.28
2022-08-11T23:32:28.428Z,101792.59
2022-08-11T23:35:39.254Z,101801.75
2022-08-11T23:38:16.115Z,101800.97
2022-08-11T23:40:57.793Z,101805.03
2022-08-11T23:43:39.907Z,101812.81
2022-08-11T23:46:21.031Z,101809.66
2022-08-11T23:49:06.015Z,101804.53
2022-08-11T23:51:47.659Z,101800.41
2022-08-11T23:54:36.611Z,101811.19
2022-08-11T23:57:18.790Z,101811.50
2022-08-11T23:59:59.995Z,101808.94
